createdAt,value
2019-05-21T00:01:40.410Z,18.90
2019-05-21T00:04:10.778Z,18.93
2019-05-21T00:06:41.084Z,19.43
2019-05-21T00:09:11.383Z,20.13
2019-05-21T00:11:41.703Z,20.70
2019-05-21T00:14:12.007Z,21.30
2019-05-21T00:16:42.374Z,20.60
2019-05-21T00:19:12.692Z,20.40
2019-05-21T00:21:43.024Z,21.87
2019-05-21T00:24:13.252Z,22.13
2019-05-21T00:26:43.492Z,20.90
2019-05-21T00:29:49.587Z,21.97
2019-05-21T00:32:55.834Z,20.93
2019-05-21T00:36:02.171Z,21.30
2019-05-21T00:39:08.521Z,21.07
2019-05-21T00:42:03.979Z,20.23
2019-05-21T00:44:37.343Z,20.87
2019-05-21T00:47:09.694Z,21.40
2019-05-21T00:49:41.275Z,20.50
2019-05-21T00:52:11.821Z,20.53
2019-05-21T00:54:42.096Z,21.17
2019-05-21T00:57:12.564Z,23.03
2019-05-21T00:59:42.856Z,24.10
2019-05-21T01:02:13.178Z,25.33
2019-05-21T01:04:59.524Z,27.67
2019-05-21T01:07:17.796Z,28.07
2019-05-21T01:09:48.083Z,28.77
2019-05-21T01:12:18.387Z,30.03
2019-05-21T01:14:51.735Z,30.40
2019-05-21T01:17:22.007Z,29.33
2019-05-21T01:19:52.281Z,26.53
2019-05-21T01:22:22.510Z,24.87
2019-05-21T01:24:52.867Z,26.00
2019-05-21T01:27:23.190Z,27.13
2019-05-21T01:29:53.387Z,26.83
2019-05-21T01:32:23.598Z,27.27
2019-05-21T01:34:53.805Z,28.80
2019-05-21T01:37:24.127Z,27.60
2019-05-21T01:39:54.349Z,27.53
2019-05-21T01:42:24.677Z,25.37
2019-05-21T01:44:54.875Z,26.77
2019-05-21T01:47:25.138Z,26.87
2019-05-21T01:49:56.514Z,27.53
2019-05-21T01:52:26.821Z,29.63
2019-05-21T01:54:57.075Z,28.60
2019-05-21T01:57:27.333Z,27.27
2019-05-21T01:59:57.683Z,30.07
2019-05-21T02:02:27.995Z,30.70
2019-05-21T02:04:58.280Z,29.70
2019-05-21T02:07:28.663Z,29.17
2019-05-21T02:09:59.016Z,28.47
2019-05-21T02:12:29.315Z,27.80
2019-05-21T02:14:59.738Z,26.23
2019-05-21T02:17:30.131Z,29.20
2019-05-21T02:20:00.458Z,27.37
2019-05-21T02:22:31.880Z,26.60
2019-05-21T02:25:02.234Z,27.20
2019-05-21T02:27:32.600Z,27.90
2019-05-21T02:30:06.905Z,29.60
2019-05-21T02:32:38.092Z,29.30
2019-05-21T02:35:08.365Z,29.17
2019-05-21T02:37:38.736Z,27.97
2019-05-21T02:40:10.482Z,27.47
2019-05-21T02:42:40.807Z,25.43
2019-05-21T02:45:11.630Z,26.37
2019-05-21T02:47:41.856Z,24.10
2019-05-21T02:50:12.661Z,25.27
2019-05-21T02:52:42.916Z,24.40
2019-05-21T02:55:13.474Z,24.70
2019-05-21T02:57:43.774Z,25.60
2019-05-21T03:00:31.505Z,26.57
2019-05-21T03:03:02.017Z,27.23
2019-05-21T03:05:32.266Z,28.23
2019-05-21T03:08:02.553Z,29.93
2019-05-21T03:10:33.840Z,28.80
2019-05-21T03:13:04.198Z,29.63
2019-05-21T03:15:34.535Z,29.87
2019-05-21T03:18:04.715Z,28.10
2019-05-21T03:20:34.953Z,27.10
2019-05-21T03:23:05.248Z,25.57
2019-05-21T03:25:35.558Z,22.13
2019-05-21T03:28:05.929Z,21.13
2019-05-21T03:30:36.214Z,21.80
2019-05-21T03:33:06.516Z,23.30
2019-05-21T03:35:36.795Z,23.37
2019-05-21T03:38:07.030Z,26.17
2019-05-21T03:40:37.294Z,29.87
2019-05-21T03:43:07.561Z,27.43
2019-05-21T03:45:37.801Z,29.60
2019-05-21T03:48:08.071Z,28.77
2019-05-21T03:50:38.382Z,29.63
2019-05-21T03:53:08.662Z,27.13
2019-05-21T03:55:38.940Z,27.83
2019-05-21T03:58:10.432Z,24.20
2019-05-21T04:00:40.724Z,21.50
2019-05-21T04:03:11.005Z,21.27
2019-05-21T04:05:41.330Z,24.30
2019-05-21T04:08:11.591Z,27.50
2019-05-21T04:10:41.871Z,25.33
2019-05-21T04:13:12.220Z,26.47
2019-05-21T04:16:01.434Z,27.53
2019-05-21T04:18:43.010Z,25.23
2019-05-21T04:21:13.397Z,25.47
2019-05-21T04:23:43.698Z,22.93
2019-05-21T04:26:14.089Z,22.53
2019-05-21T04:28:44.387Z,19.20
2019-05-21T04:31:14.671Z,19.97
2019-05-21T04:33:44.960Z,21.27
2019-05-21T04:36:15.196Z,20.70
2019-05-21T04:38:45.453Z,20.37
2019-05-21T04:41:15.762Z,18.03
2019-05-21T04:43:46.098Z,20.20
2019-05-21T04:46:16.376Z,19.63
2019-05-21T04:48:46.664Z,21.07
2019-05-21T04:51:16.984Z,21.70
2019-05-21T04:53:47.375Z,23.33
2019-05-21T04:56:17.649Z,24.77
2019-05-21T04:58:48.047Z,25.37
2019-05-21T05:01:18.356Z,25.30
2019-05-21T05:03:48.677Z,28.73
2019-05-21T05:06:19.075Z,28.97
2019-05-21T05:08:51.637Z,29.37
2019-05-21T05:11:23.323Z,32.97
2019-05-21T05:13:53.766Z,29.13
2019-05-21T05:16:24.125Z,28.07
2019-05-21T05:18:54.456Z,35.63
2019-05-21T05:21:27.436Z,28.67
2019-05-21T05:23:57.760Z,30.57
2019-05-21T05:26:28.100Z,27.50
2019-05-21T05:28:58.434Z,31.97
2019-05-21T05:31:28.796Z,30.80
2019-05-21T05:33:59.209Z,34.77
2019-05-21T05:36:29.552Z,30.63
2019-05-21T05:38:59.816Z,27.43
2019-05-21T05:41:30.270Z,27.57
2019-05-21T05:44:00.576Z,27.57
2019-05-21T05:46:30.978Z,30.00
2019-05-21T05:49:06.958Z,26.53
2019-05-21T05:51:40.054Z,21.87
2019-05-21T05:54:10.386Z,21.30
2019-05-21T05:56:40.745Z,22.17
2019-05-21T05:59:14.241Z,21.57
2019-05-21T06:01:43.199Z,20.50
2019-05-21T06:04:13.458Z,20.13
2019-05-21T06:06:43.774Z,19.60
2019-05-21T06:09:14.181Z,18.87
2019-05-21T06:11:44.532Z,17.73
2019-05-21T06:14:15.043Z,21.73
2019-05-21T06:16:45.401Z,21.97
2019-05-21T06:19:15.744Z,20.70
2019-05-21T06:21:46.076Z,22.03
2019-05-21T06:24:17.928Z,21.37
2019-05-21T06:26:48.086Z,20.33
2019-05-21T06:29:18.311Z,20.03
2019-05-21T06:31:49.597Z,20.00
2019-05-21T06:34:19.789Z,24.80
2019-05-21T06:36:50.024Z,21.33
2019-05-21T06:39:20.244Z,18.50
2019-05-21T06:41:50.530Z,19.43
2019-05-21T06:44:22.246Z,18.90
2019-05-21T06:46:52.521Z,19.13
2019-05-21T06:49:22.785Z,19.57
2019-05-21T06:51:52.932Z,19.60
2019-05-21T06:54:23.192Z,19.67
2019-05-21T06:56:53.381Z,20.20
2019-05-21T06:59:23.527Z,17.07
2019-05-21T07:01:53.730Z,16.03
2019-05-21T07:04:23.924Z,15.40
2019-05-21T07:06:54.422Z,13.70
2019-05-21T07:09:24.621Z,15.27
2019-05-21T07:11:54.791Z,13.23
2019-05-21T07:14:25.004Z,15.27
2019-05-21T07:16:56.221Z,16.37
2019-05-21T07:19:26.492Z,17.17
2019-05-21T07:22:11.428Z,17.37
2019-05-21T07:24:28.941Z,18.60
2019-05-21T07:26:59.177Z,17.73
2019-05-21T07:29:29.283Z,18.07
2019-05-21T07:31:59.503Z,16.43
2019-05-21T07:34:30.324Z,14.83
2019-05-21T07:37:00.465Z,13.93
2019-05-21T07:39:31.669Z,14.63
2019-05-21T07:42:01.838Z,14.97
2019-05-21T07:44:33.068Z,14.73
2019-05-21T07:47:03.271Z,15.77
2019-05-21T07:49:33.550Z,16.17
2019-05-21T07:52:03.767Z,16.97
2019-05-21T07:54:34.039Z,16.40
2019-05-21T07:57:04.239Z,18.23
2019-05-21T07:59:34.477Z,19.17
2019-05-21T08:02:05.819Z,16.53
2019-05-21T08:04:36.027Z,15.83
2019-05-21T08:07:06.420Z,15.23
2019-05-21T08:09:36.588Z,16.53
2019-05-21T08:12:34.498Z,16.10
2019-05-21T08:14:38.761Z,18.33
2019-05-21T08:17:09.093Z,16.73
2019-05-21T08:19:39.442Z,17.40
2019-05-21T08:22:09.628Z,15.63
2019-05-21T08:24:39.812Z,16.47
2019-05-21T08:27:10.182Z,16.17
2019-05-21T08:29:40.632Z,14.70
2019-05-21T08:32:10.814Z,16.37
2019-05-21T08:34:41.037Z,15.40
2019-05-21T08:37:11.278Z,15.20
2019-05-21T08:39:41.426Z,13.53
2019-05-21T08:42:11.719Z,15.23
2019-05-21T08:44:42.268Z,15.90
2019-05-21T08:47:12.450Z,15.03
2019-05-21T08:49:44.258Z,16.23
2019-05-21T08:52:14.618Z,13.73
2019-05-21T08:54:49.044Z,13.97
2019-05-21T08:57:19.778Z,12.50
2019-05-21T08:59:49.986Z,12.67
2019-05-21T09:02:20.143Z,13.17
2019-05-21T09:04:50.385Z,12.43
2019-05-21T09:07:21.017Z,11.57
2019-05-21T09:09:52.147Z,11.40
2019-05-21T09:12:22.602Z,10.47
2019-05-21T09:14:52.817Z,10.07
2019-05-21T09:17:22.960Z,9.73
2019-05-21T09:19:53.210Z,9.33
2019-05-21T09:22:23.457Z,10.23
2019-05-21T09:24:53.645Z,10.27
2019-05-21T09:27:23.932Z,9.67
2019-05-21T09:29:54.150Z,9.53
2019-05-21T09:32:24.487Z,10.03
2019-05-21T09:34:54.795Z,10.70
2019-05-21T09:37:24.974Z,9.83
2019-05-21T09:39:55.223Z,10.40
2019-05-21T09:42:25.371Z,11.57
2019-05-21T09:44:55.503Z,10.60
2019-05-21T09:47:25.612Z,10.47
2019-05-21T09:49:55.780Z,11.17
2019-05-21T09:52:27.573Z,11.43
2019-05-21T09:54:57.772Z,11.13
2019-05-21T09:57:34.528Z,11.97
2019-05-21T10:00:13.423Z,13.63
2019-05-21T10:02:43.619Z,14.93
2019-05-21T10:05:13.750Z,13.00
2019-05-21T10:07:43.984Z,13.17
2019-05-21T10:10:15.227Z,13.20
2019-05-21T10:12:45.374Z,12.27
2019-05-21T10:15:15.460Z,15.70
2019-05-21T10:17:45.764Z,12.83
2019-05-21T10:20:15.839Z,13.57
2019-05-21T10:22:46.039Z,12.37
2019-05-21T10:25:16.258Z,12.20
2019-05-21T10:27:46.609Z,14.13
2019-05-21T10:30:18.482Z,13.70
2019-05-21T10:32:48.672Z,12.87
2019-05-21T10:35:18.834Z,15.30
2019-05-21T10:37:54.873Z,20.47
2019-05-21T10:40:23.394Z,34.73
2019-05-21T10:42:53.524Z,16.10
2019-05-21T10:45:25.537Z,15.33
2019-05-21T10:47:55.746Z,17.90
2019-05-21T10:50:25.941Z,14.20
2019-05-21T10:52:56.141Z,13.10
2019-05-21T10:55:27.136Z,12.67
2019-05-21T10:57:57.377Z,12.63
2019-05-21T11:00:28.350Z,12.70
2019-05-21T11:03:06.709Z,11.60
2019-05-21T11:05:39.124Z,11.03
2019-05-21T11:08:25.537Z,12.50
2019-05-21T11:10:41.338Z,12.63
2019-05-21T11:13:11.509Z,12.10
2019-05-21T11:15:41.663Z,12.67
2019-05-21T11:18:12.276Z,13.37
2019-05-21T11:20:42.637Z,14.47
2019-05-21T11:23:12.852Z,15.00
2019-05-21T11:25:43.074Z,30.00
2019-05-21T11:28:13.272Z,15.77
2019-05-21T11:30:44.521Z,17.73
2019-05-21T11:33:14.840Z,17.20
2019-05-21T11:35:45.244Z,17.03
2019-05-21T11:38:15.445Z,17.67
2019-05-21T11:40:50.776Z,16.20
2019-05-21T11:43:17.489Z,14.87
2019-05-21T11:45:47.645Z,16.43
2019-05-21T11:48:17.786Z,18.50
2019-05-21T11:50:49.568Z,17.57
2019-05-21T11:53:19.774Z,16.27
2019-05-21T11:55:49.956Z,17.27
2019-05-21T11:58:21.287Z,16.97
2019-05-21T12:00:51.465Z,17.83
2019-05-21T12:03:21.738Z,17.57
2019-05-21T12:05:52.086Z,18.07
2019-05-21T12:08:22.301Z,19.33
2019-05-21T12:10:52.464Z,20.47
2019-05-21T12:13:22.802Z,40.17
2019-05-21T12:15:53.100Z,28.50
2019-05-21T12:18:26.161Z,19.43
2019-05-21T12:20:56.480Z,19.03
2019-05-21T12:23:29.579Z,19.87
2019-05-21T12:26:07.768Z,19.50
2019-05-21T12:28:37.985Z,19.83
2019-05-21T12:31:08.381Z,21.47
2019-05-21T12:33:41.881Z,23.00
2019-05-21T12:36:12.049Z,22.50
2019-05-21T12:38:42.459Z,21.87
2019-05-21T12:41:13.879Z,24.40
2019-05-21T12:43:44.291Z,24.60
2019-05-21T12:46:14.546Z,23.83
2019-05-21T12:48:45.921Z,23.40
2019-05-21T12:51:16.227Z,22.27
2019-05-21T12:53:46.504Z,25.97
2019-05-21T12:56:16.766Z,26.80
2019-05-21T12:58:47.103Z,24.60
2019-05-21T13:01:17.767Z,23.30
2019-05-21T13:03:47.944Z,24.47
2019-05-21T13:06:18.194Z,24.53
2019-05-21T13:08:48.394Z,23.43
2019-05-21T13:11:18.641Z,22.00
2019-05-21T13:13:48.857Z,21.50
2019-05-21T13:16:19.736Z,23.30
2019-05-21T13:18:49.977Z,20.40
2019-05-21T13:21:20.259Z,22.60
2019-05-21T13:23:54.297Z,22.50
2019-05-21T13:26:24.553Z,21.87
2019-05-21T13:28:54.798Z,23.07
2019-05-21T13:31:28.326Z,24.40
2019-05-21T13:33:58.578Z,22.93
2019-05-21T13:36:28.798Z,23.00
2019-05-21T13:38:59.234Z,24.63
2019-05-21T13:41:29.470Z,25.50
2019-05-21T13:44:03.987Z,24.43
2019-05-21T13:46:35.705Z,25.00
2019-05-21T13:49:07.810Z,23.60
2019-05-21T13:51:39.128Z,27.73
2019-05-21T13:54:09.446Z,27.40
2019-05-21T13:56:40.625Z,25.67
2019-05-21T13:59:10.901Z,25.00
2019-05-21T14:01:41.803Z,25.80
2019-05-21T14:04:12.299Z,24.73
2019-05-21T14:06:42.543Z,26.47
2019-05-21T14:09:12.828Z,26.40
2019-05-21T14:11:43.090Z,24.27
2019-05-21T14:14:13.404Z,26.90
2019-05-21T14:16:44.314Z,27.73
2019-05-21T14:19:14.944Z,26.10
2019-05-21T14:21:45.211Z,26.83
2019-05-21T14:24:15.515Z,26.63
2019-05-21T14:26:45.786Z,24.20
2019-05-21T14:29:16.015Z,23.87
2019-05-21T14:31:46.224Z,24.83
2019-05-21T14:34:16.476Z,24.83
2019-05-21T14:36:47.793Z,23.47
2019-05-21T14:39:18.312Z,25.03
2019-05-21T14:41:48.482Z,24.67
2019-05-21T14:44:20.285Z,25.63
2019-05-21T14:46:50.487Z,25.97
2019-05-21T14:49:20.684Z,25.90
2019-05-21T14:51:50.853Z,27.63
2019-05-21T14:54:26.734Z,24.17
2019-05-21T14:56:53.214Z,23.70
2019-05-21T14:59:23.476Z,22.63
2019-05-21T15:01:53.779Z,22.57
2019-05-21T15:04:24.365Z,21.87
2019-05-21T15:06:54.790Z,21.80
2019-05-21T15:09:25.027Z,22.03
2019-05-21T15:11:55.278Z,23.83
2019-05-21T15:14:25.558Z,23.50
2019-05-21T15:16:55.925Z,22.97
2019-05-21T15:19:26.025Z,24.03
2019-05-21T15:21:56.238Z,23.37
2019-05-21T15:24:26.455Z,23.73
2019-05-21T15:26:57.721Z,25.50
2019-05-21T15:29:27.913Z,23.03
2019-05-21T15:31:58.109Z,24.47
2019-05-21T15:34:28.268Z,23.57
2019-05-21T15:36:59.549Z,24.53
2019-05-21T15:39:29.727Z,22.83
2019-05-21T15:41:59.870Z,24.30
2019-05-21T15:44:29.999Z,23.73
2019-05-21T15:47:01.717Z,24.47
2019-05-21T15:49:36.219Z,22.33
2019-05-21T15:52:03.801Z,26.03
2019-05-21T15:54:33.962Z,22.13
2019-05-21T15:57:04.320Z,28.10
2019-05-21T15:59:34.660Z,23.00
2019-05-21T16:02:05.065Z,20.83
2019-05-21T16:04:37.646Z,19.87
2019-05-21T16:07:07.994Z,21.93
2019-05-21T16:09:38.206Z,20.53
2019-05-21T16:12:09.412Z,19.87
2019-05-21T16:14:39.575Z,18.27
2019-05-21T16:17:09.747Z,17.63
2019-05-21T16:19:40.040Z,17.57
2019-05-21T16:22:11.820Z,17.30
2019-05-21T16:24:41.971Z,15.63
2019-05-21T16:27:12.268Z,15.47
2019-05-21T16:29:44.165Z,15.23
2019-05-21T16:32:14.468Z,16.77
2019-05-21T16:34:44.832Z,16.03
2019-05-21T16:37:15.132Z,16.53
2019-05-21T16:39:45.340Z,16.73
2019-05-21T16:42:15.593Z,16.77
2019-05-21T16:44:45.835Z,16.10
2019-05-21T16:47:15.999Z,15.60
2019-05-21T16:49:46.875Z,16.83
2019-05-21T16:52:18.059Z,16.83
2019-05-21T16:54:48.231Z,17.77
2019-05-21T16:57:18.426Z,16.70
2019-05-21T16:59:50.239Z,18.60
2019-05-21T17:02:20.353Z,20.50
2019-05-21T17:04:50.557Z,20.87
2019-05-21T17:07:20.817Z,19.63
2019-05-21T17:09:50.994Z,19.97
2019-05-21T17:12:21.166Z,19.97
2019-05-21T17:14:51.337Z,20.57
2019-05-21T17:17:21.553Z,23.13
2019-05-21T17:19:51.785Z,25.07
2019-05-21T17:22:22.024Z,22.47
2019-05-21T17:24:52.293Z,26.43
2019-05-21T17:27:22.559Z,21.53
2019-05-21T17:29:53.225Z,23.03
2019-05-21T17:32:24.019Z,21.30
2019-05-21T17:34:54.518Z,22.83
2019-05-21T17:37:26.249Z,21.97
2019-05-21T17:39:56.811Z,23.43
2019-05-21T17:42:27.154Z,27.20
2019-05-21T17:45:00.642Z,24.80
2019-05-21T17:47:31.743Z,24.90
2019-05-21T17:50:03.799Z,29.50
2019-05-21T17:52:35.547Z,28.70
2019-05-21T17:55:06.061Z,27.93
2019-05-21T17:57:36.432Z,28.50
2019-05-21T18:00:08.528Z,29.63
2019-05-21T18:02:39.451Z,29.73
2019-05-21T18:05:12.067Z,28.87
2019-05-21T18:07:45.297Z,32.03
2019-05-21T18:10:20.079Z,32.10
2019-05-21T18:12:50.825Z,30.60
2019-05-21T18:15:21.217Z,31.00
2019-05-21T18:17:51.716Z,29.47
2019-05-21T18:20:25.481Z,29.03
2019-05-21T18:22:55.781Z,28.43
2019-05-21T18:25:28.730Z,26.50
2019-05-21T18:27:59.020Z,28.07
2019-05-21T18:30:30.898Z,24.13
2019-05-21T18:33:01.535Z,22.47
2019-05-21T18:35:33.430Z,22.00
2019-05-21T18:38:04.680Z,20.90
2019-05-21T18:40:37.090Z,19.20
2019-05-21T18:43:07.454Z,21.93
2019-05-21T18:45:37.721Z,22.60
2019-05-21T18:48:07.827Z,20.03
2019-05-21T18:50:38.109Z,19.83
2019-05-21T18:53:09.558Z,20.33
2019-05-21T18:55:41.345Z,21.53
2019-05-21T18:58:16.445Z,20.93
2019-05-21T19:00:49.492Z,20.53
2019-05-21T19:03:31.061Z,21.10
2019-05-21T19:06:07.229Z,22.30
2019-05-21T19:08:39.277Z,20.70
2019-05-21T19:11:17.249Z,18.17
2019-05-21T19:13:49.754Z,16.70
2019-05-21T19:16:24.558Z,20.13
2019-05-21T19:18:58.570Z,20.83
2019-05-21T19:21:33.948Z,14.43
2019-05-21T19:24:17.186Z,15.03
2019-05-21T19:26:51.833Z,16.80
2019-05-21T19:29:29.172Z,12.73
2019-05-21T19:32:04.622Z,15.93
2019-05-21T19:34:36.839Z,11.57
2019-05-21T19:37:07.617Z,9.97
2019-05-21T19:39:40.814Z,10.73
2019-05-21T19:42:11.755Z,10.80
2019-05-21T19:44:54.616Z,9.63
2019-05-21T19:47:35.943Z,8.43
2019-05-21T19:50:08.230Z,8.83
2019-05-21T19:52:39.681Z,8.60
2019-05-21T19:55:12.329Z,9.07
2019-05-21T19:57:47.614Z,9.10
2019-05-21T20:00:24.737Z,9.10
2019-05-21T20:02:58.711Z,8.83
2019-05-21T20:05:40.387Z,9.37
2019-05-21T20:08:13.853Z,9.87
2019-05-21T20:10:45.080Z,11.43
2019-05-21T20:13:30.450Z,12.77
2019-05-21T20:15:55.251Z,13.23
2019-05-21T20:18:27.473Z,22.23
2019-05-21T20:21:00.025Z,25.63
2019-05-21T20:23:33.212Z,17.37
2019-05-21T20:26:05.655Z,25.70
2019-05-21T20:28:38.047Z,13.20
2019-05-21T20:31:26.753Z,15.30
2019-05-21T20:34:00.965Z,15.20
2019-05-21T20:36:43.811Z,23.70
2019-05-21T20:39:19.686Z,15.70
2019-05-21T20:42:01.269Z,18.00
2019-05-21T20:44:28.335Z,14.77
2019-05-21T20:46:59.155Z,14.67
2019-05-21T20:49:32.685Z,14.07
2019-05-21T20:52:17.719Z,13.63
2019-05-21T20:54:41.121Z,12.67
2019-05-21T20:57:15.522Z,13.43
2019-05-21T20:59:46.322Z,11.27
2019-05-21T21:02:23.129Z,12.17
2019-05-21T21:04:55.339Z,10.67
2019-05-21T21:07:27.377Z,10.90
2019-05-21T21:10:00.453Z,9.80
2019-05-21T21:12:37.572Z,8.70
2019-05-21T21:15:09.965Z,8.10
2019-05-21T21:17:46.917Z,7.27
2019-05-21T21:20:22.567Z,8.43
2019-05-21T21:22:58.097Z,7.33
2019-05-21T21:25:30.330Z,8.67
2019-05-21T21:28:01.275Z,7.67
2019-05-21T21:30:36.611Z,7.27
2019-05-21T21:33:12.386Z,8.27
2019-05-21T21:35:43.520Z,7.93
2019-05-21T21:38:17.301Z,7.87
2019-05-21T21:40:47.736Z,8.73
2019-05-21T21:43:21.113Z,8.13
2019-05-21T21:45:51.551Z,8.10
2019-05-21T21:48:26.534Z,7.87
2019-05-21T21:50:57.541Z,8.87
2019-05-21T21:53:27.795Z,8.73
2019-05-21T21:55:59.008Z,8.23
2019-05-21T21:58:29.461Z,7.70
2019-05-21T22:01:33.239Z,7.23
2019-05-21T22:04:06.027Z,7.07
2019-05-21T22:06:39.392Z,6.50
2019-05-21T22:09:42.560Z,6.50
2019-05-21T22:12:17.511Z,7.70
2019-05-21T22:14:52.476Z,8.67
2019-05-21T22:17:22.714Z,7.77
2019-05-21T22:19:53.263Z,8.90
2019-05-21T22:22:23.495Z,8.97
2019-05-21T22:24:58.769Z,7.63
2019-05-21T22:27:28.614Z,8.07
2019-05-21T22:29:58.769Z,7.93
2019-05-21T22:32:28.955Z,7.57
2019-05-21T22:35:00.055Z,8.00
2019-05-21T22:37:30.814Z,7.03
2019-05-21T22:40:01.077Z,7.23
2019-05-21T22:42:32.054Z,7.10
2019-05-21T22:45:08.410Z,6.30
2019-05-21T22:47:34.117Z,5.97
2019-05-21T22:50:04.412Z,6.37
2019-05-21T22:52:34.548Z,6.53
2019-05-21T22:55:04.935Z,6.03
2019-05-21T22:57:35.041Z,6.73
2019-05-21T23:00:06.621Z,5.80
2019-05-21T23:02:38.140Z,5.80
2019-05-21T23:05:08.608Z,6.33
2019-05-21T23:07:40.474Z,6.17
2019-05-21T23:10:10.965Z,7.13
2019-05-21T23:12:41.238Z,5.93
2019-05-21T23:15:24.301Z,6.40
2019-05-21T23:17:45.079Z,6.97
2019-05-21T23:20:23.965Z,6.13
2019-05-21T23:22:56.851Z,6.43
2019-05-21T23:25:27.413Z,5.83
2019-05-21T23:27:57.650Z,5.17
2019-05-21T23:30:28.084Z,5.70
2019-05-21T23:32:58.474Z,5.60
2019-05-21T23:35:28.813Z,5.70
2019-05-21T23:38:01.258Z,5.77
2019-05-21T23:40:31.770Z,5.90
2019-05-21T23:43:02.034Z,6.37
2019-05-21T23:45:34.761Z,7.03
2019-05-21T23:48:06.496Z,6.43
2019-05-21T23:50:36.846Z,6.50
2019-05-21T23:53:07.909Z,6.40
2019-05-21T23:55:39.298Z,7.17
2019-05-21T23:58:10.131Z,6.90
